sensor_id;sensor_type;location;lat;lon;timestamp;P1;durP1;ratioP1;P2;durP2;ratioP2
66667;SDS011;57205;51.438;-2.006;2024-03-08T00:01:35;37.38;;;21.25;;
66667;SDS011;57205;51.438;-2.006;2024-03-08T00:04:00;33.13;;;21.45;;
66667;SDS011;57205;51.438;-2.006;2024-03-08T00:06:26;34.78;;;21.90;;
66667;SDS011;57205;51.438;-2.006;2024-03-08T00:08:51;36.63;;;22.00;;
66667;SDS011;57205;51.438;-2.006;2024-03-08T00:11:16;31.40;;;21.40;;
66667;SDS011;57205;51.438;-2.006;2024-03-08T00:13:42;33.92;;;22.05;;
66667;SDS011;57205;51.438;-2.006;2024-03-08T00:16:07;34.22;;;21.55;;
66667;SDS011;57205;51.438;-2.006;2024-03-08T00:18:34;33.83;;;22.13;;
66667;SDS011;57205;51.438;-2.006;2024-03-08T00:20:59;33.88;;;21.52;;
66667;SDS011;57205;51.438;-2.006;2024-03-08T00:23:25;33.90;;;21.23;;
66667;SDS011;57205;51.438;-2.006;2024-03-08T00:25:50;35.08;;;21.40;;
66667;SDS011;57205;51.438;-2.006;2024-03-08T00:28:16;35.03;;;22.02;;
66667;SDS011;57205;51.438;-2.006;2024-03-08T00:30:43;36.58;;;22.88;;
66667;SDS011;57205;51.438;-2.006;2024-03-08T00:33:10;36.25;;;22.65;;
66667;SDS011;57205;51.438;-2.006;2024-03-08T00:35:36;34.60;;;21.88;;
66667;SDS011;57205;51.438;-2.006;2024-03-08T00:38:01;36.75;;;21.92;;
66667;SDS011;57205;51.438;-2.006;2024-03-08T00:40:27;34.92;;;22.42;;
66667;SDS011;57205;51.438;-2.006;2024-03-08T00:42:54;32.28;;;21.70;;
66667;SDS011;57205;51.438;-2.006;2024-03-08T00:45:19;36.00;;;22.52;;
66667;SDS011;57205;51.438;-2.006;2024-03-08T00:47:44;36.50;;;21.10;;
66667;SDS011;57205;51.438;-2.006;2024-03-08T00:50:10;37.17;;;22.67;;
66667;SDS011;57205;51.438;-2.006;2024-03-08T00:52:36;35.47;;;21.23;;
66667;SDS011;57205;51.438;-2.006;2024-03-08T00:55:02;37.38;;;23.48;;
66667;SDS011;57205;51.438;-2.006;2024-03-08T00:57:28;36.25;;;23.92;;
66667;SDS011;57205;51.438;-2.006;2024-03-08T00:59:55;36.70;;;23.73;;
66667;SDS011;57205;51.438;-2.006;2024-03-08T01:02:21;37.72;;;22.42;;
66667;SDS011;57205;51.438;-2.006;2024-03-08T01:04:48;38.58;;;23.58;;
66667;SDS011;57205;51.438;-2.006;2024-03-08T01:07:13;35.00;;;23.45;;
66667;SDS011;57205;51.438;-2.006;2024-03-08T01:09:39;39.33;;;24.48;;
66667;SDS011;57205;51.438;-2.006;2024-03-08T01:12:04;37.10;;;23.58;;
66667;SDS011;57205;51.438;-2.006;2024-03-08T01:14:32;42.42;;;23.70;;
66667;SDS011;57205;51.438;-2.006;2024-03-08T01:16:58;41.35;;;24.15;;
66667;SDS011;57205;51.438;-2.006;2024-03-08T01:19:24;39.88;;;24.17;;
66667;SDS011;57205;51.438;-2.006;2024-03-08T01:21:49;42.10;;;24.55;;
66667;SDS011;57205;51.438;-2.006;2024-03-08T01:24:16;38.25;;;24.08;;
66667;SDS011;57205;51.438;-2.006;2024-03-08T01:26:41;37.28;;;24.23;;
66667;SDS011;57205;51.438;-2.006;2024-03-08T01:29:07;38.92;;;26.10;;
66667;SDS011;57205;51.438;-2.006;2024-03-08T01:31:33;42.45;;;25.73;;
66667;SDS011;57205;51.438;-2.006;2024-03-08T01:33:58;41.10;;;25.70;;
66667;SDS011;57205;51.438;-2.006;2024-03-08T01:36:24;42.22;;;25.15;;
66667;SDS011;57205;51.438;-2.006;2024-03-08T01:38:50;38.95;;;25.10;;
66667;SDS011;57205;51.438;-2.006;2024-03-08T01:41:16;41.83;;;24.63;;
66667;SDS011;57205;51.438;-2.006;2024-03-08T01:43:42;43.10;;;25.00;;
66667;SDS011;57205;51.438;-2.006;2024-03-08T01:46:08;45.95;;;25.30;;
66667;SDS011;57205;51.438;-2.006;2024-03-08T01:48:34;45.47;;;27.95;;
66667;SDS011;57205;51.438;-2.006;2024-03-08T01:51:01;46.58;;;27.02;;
66667;SDS011;57205;51.438;-2.006;2024-03-08T01:53:27;41.40;;;25.98;;
66667;SDS011;57205;51.438;-2.006;2024-03-08T01:55:55;41.38;;;26.90;;
66667;SDS011;57205;51.438;-2.006;2024-03-08T01:58:24;46.58;;;27.95;;
66667;SDS011;57205;51.438;-2.006;2024-03-08T02:00:53;38.42;;;24.90;;
66667;SDS011;57205;51.438;-2.006;2024-03-08T02:03:19;42.78;;;26.50;;
66667;SDS011;57205;51.438;-2.006;2024-03-08T02:05:46;41.17;;;26.58;;
66667;SDS011;57205;51.438;-2.006;2024-03-08T02:08:11;47.83;;;27.55;;
66667;SDS011;57205;51.438;-2.006;2024-03-08T02:10:39;46.08;;;28.38;;
66667;SDS011;57205;51.438;-2.006;2024-03-08T02:13:09;45.00;;;27.40;;
66667;SDS011;57205;51.438;-2.006;2024-03-08T02:15:54;40.40;;;25.60;;
66667;SDS011;57205;51.438;-2.006;2024-03-08T02:18:27;48.20;;;29.88;;
66667;SDS011;57205;51.438;-2.006;2024-03-08T02:20:55;47.30;;;30.20;;
66667;SDS011;57205;51.438;-2.006;2024-03-08T02:23:21;49.03;;;29.25;;
66667;SDS011;57205;51.438;-2.006;2024-03-08T02:25:50;50.70;;;31.40;;
66667;SDS011;57205;51.438;-2.006;2024-03-08T02:28:16;48.40;;;30.73;;
66667;SDS011;57205;51.438;-2.006;2024-03-08T02:30:44;48.75;;;30.15;;
66667;SDS011;57205;51.438;-2.006;2024-03-08T02:33:13;53.92;;;30.25;;
66667;SDS011;57205;51.438;-2.006;2024-03-08T02:35:38;52.38;;;32.63;;
66667;SDS011;57205;51.438;-2.006;2024-03-08T02:38:04;52.05;;;32.47;;
66667;SDS011;57205;51.438;-2.006;2024-03-08T02:40:30;56.45;;;33.22;;
66667;SDS011;57205;51.438;-2.006;2024-03-08T02:42:55;54.05;;;31.85;;
66667;SDS011;57205;51.438;-2.006;2024-03-08T02:45:21;51.55;;;29.17;;
66667;SDS011;57205;51.438;-2.006;2024-03-08T02:47:46;52.17;;;31.98;;
66667;SDS011;57205;51.438;-2.006;2024-03-08T02:50:14;53.08;;;32.15;;
66667;SDS011;57205;51.438;-2.006;2024-03-08T02:52:41;53.58;;;31.63;;
66667;SDS011;57205;51.438;-2.006;2024-03-08T02:55:07;52.85;;;32.97;;
66667;SDS011;57205;51.438;-2.006;2024-03-08T02:57:35;54.42;;;33.85;;
66667;SDS011;57205;51.438;-2.006;2024-03-08T03:00:02;61.05;;;31.83;;
66667;SDS011;57205;51.438;-2.006;2024-03-08T03:02:29;54.22;;;33.00;;
66667;SDS011;57205;51.438;-2.006;2024-03-08T03:04:54;53.95;;;32.40;;
66667;SDS011;57205;51.438;-2.006;2024-03-08T03:07:21;56.60;;;33.13;;
66667;SDS011;57205;51.438;-2.006;2024-03-08T03:09:46;53.65;;;32.65;;
66667;SDS011;57205;51.438;-2.006;2024-03-08T03:12:12;57.63;;;33.30;;
66667;SDS011;57205;51.438;-2.006;2024-03-08T03:14:37;52.65;;;31.63;;
66667;SDS011;57205;51.438;-2.006;2024-03-08T03:17:05;56.63;;;31.92;;
66667;SDS011;57205;51.438;-2.006;2024-03-08T03:19:31;56.70;;;32.85;;
66667;SDS011;57205;51.438;-2.006;2024-03-08T03:21:57;63.58;;;34.95;;
66667;SDS011;57205;51.438;-2.006;2024-03-08T03:24:22;52.40;;;32.15;;
66667;SDS011;57205;51.438;-2.006;2024-03-08T03:26:48;58.90;;;33.80;;
66667;SDS011;57205;51.438;-2.006;2024-03-08T03:29:14;57.03;;;33.88;;
66667;SDS011;57205;51.438;-2.006;2024-03-08T03:31:41;53.28;;;32.90;;
66667;SDS011;57205;51.438;-2.006;2024-03-08T03:34:07;58.55;;;32.67;;
66667;SDS011;57205;51.438;-2.006;2024-03-08T03:36:33;59.30;;;33.42;;
66667;SDS011;57205;51.438;-2.006;2024-03-08T03:39:00;55.53;;;34.08;;
66667;SDS011;57205;51.438;-2.006;2024-03-08T03:41:37;52.50;;;31.90;;
66667;SDS011;57205;51.438;-2.006;2024-03-08T03:44:03;55.65;;;32.63;;
66667;SDS011;57205;51.438;-2.006;2024-03-08T03:46:30;58.08;;;32.55;;
66667;SDS011;57205;51.438;-2.006;2024-03-08T03:48:56;50.70;;;33.42;;
66667;SDS011;57205;51.438;-2.006;2024-03-08T03:51:21;57.90;;;33.28;;
66667;SDS011;57205;51.438;-2.006;2024-03-08T03:53:47;51.85;;;32.25;;
66667;SDS011;57205;51.438;-2.006;2024-03-08T03:56:12;51.38;;;31.75;;
66667;SDS011;57205;51.438;-2.006;2024-03-08T03:58:38;53.72;;;31.90;;
66667;SDS011;57205;51.438;-2.006;2024-03-08T04:01:04;52.42;;;31.33;;
66667;SDS011;57205;51.438;-2.006;2024-03-08T04:03:30;51.78;;;31.27;;
66667;SDS011;57205;51.438;-2.006;2024-03-08T04:05:56;50.63;;;31.65;;
66667;SDS011;57205;51.438;-2.006;2024-03-08T04:08:22;49.25;;;30.92;;
66667;SDS011;57205;51.438;-2.006;2024-03-08T04:10:49;52.92;;;31.08;;
66667;SDS011;57205;51.438;-2.006;2024-03-08T04:13:16;50.83;;;31.05;;
66667;SDS011;57205;51.438;-2.006;2024-03-08T04:15:41;46.08;;;30.05;;
66667;SDS011;57205;51.438;-2.006;2024-03-08T04:18:09;48.38;;;30.30;;
66667;SDS011;57205;51.438;-2.006;2024-03-08T04:20:34;55.97;;;30.52;;
66667;SDS011;57205;51.438;-2.006;2024-03-08T04:23:00;47.63;;;30.08;;
66667;SDS011;57205;51.438;-2.006;2024-03-08T04:25:25;48.45;;;29.15;;
66667;SDS011;57205;51.438;-2.006;2024-03-08T04:27:51;42.63;;;28.00;;
66667;SDS011;57205;51.438;-2.006;2024-03-08T04:30:18;47.67;;;29.15;;
66667;SDS011;57205;51.438;-2.006;2024-03-08T04:32:43;43.92;;;27.55;;
66667;SDS011;57205;51.438;-2.006;2024-03-08T04:35:09;59.33;;;31.58;;
66667;SDS011;57205;51.438;-2.006;2024-03-08T04:37:34;47.08;;;28.00;;
66667;SDS011;57205;51.438;-2.006;2024-03-08T04:40:02;49.15;;;27.95;;
66667;SDS011;57205;51.438;-2.006;2024-03-08T04:42:28;41.88;;;26.85;;
66667;SDS011;57205;51.438;-2.006;2024-03-08T04:44:55;46.97;;;27.67;;
66667;SDS011;57205;51.438;-2.006;2024-03-08T04:47:20;50.65;;;29.33;;
66667;SDS011;57205;51.438;-2.006;2024-03-08T04:49:46;47.92;;;28.27;;
66667;SDS011;57205;51.438;-2.006;2024-03-08T04:52:11;47.35;;;29.05;;
66667;SDS011;57205;51.438;-2.006;2024-03-08T04:54:37;45.53;;;27.77;;
66667;SDS011;57205;51.438;-2.006;2024-03-08T04:57:02;46.70;;;29.13;;
66667;SDS011;57205;51.438;-2.006;2024-03-08T04:59:29;44.28;;;27.33;;
66667;SDS011;57205;51.438;-2.006;2024-03-08T05:01:55;43.60;;;26.05;;
66667;SDS011;57205;51.438;-2.006;2024-03-08T05:04:21;47.15;;;28.50;;
66667;SDS011;57205;51.438;-2.006;2024-03-08T05:06:47;47.17;;;26.02;;
66667;SDS011;57205;51.438;-2.006;2024-03-08T05:09:13;44.65;;;28.05;;
66667;SDS011;57205;51.438;-2.006;2024-03-08T05:11:42;43.60;;;27.10;;
66667;SDS011;57205;51.438;-2.006;2024-03-08T05:14:09;47.65;;;29.60;;
66667;SDS011;57205;51.438;-2.006;2024-03-08T05:16:35;46.28;;;27.60;;
66667;SDS011;57205;51.438;-2.006;2024-03-08T05:19:01;43.42;;;26.23;;
66667;SDS011;57205;51.438;-2.006;2024-03-08T05:21:27;49.30;;;29.08;;
66667;SDS011;57205;51.438;-2.006;2024-03-08T05:23:53;45.13;;;28.17;;
66667;SDS011;57205;51.438;-2.006;2024-03-08T05:26:19;44.40;;;26.35;;
66667;SDS011;57205;51.438;-2.006;2024-03-08T05:28:45;48.17;;;27.77;;
66667;SDS011;57205;51.438;-2.006;2024-03-08T05:31:17;52.50;;;29.73;;
66667;SDS011;57205;51.438;-2.006;2024-03-08T05:33:49;49.15;;;28.38;;
66667;SDS011;57205;51.438;-2.006;2024-03-08T05:36:15;42.08;;;27.77;;
66667;SDS011;57205;51.438;-2.006;2024-03-08T05:38:42;49.88;;;27.67;;
66667;SDS011;57205;51.438;-2.006;2024-03-08T05:41:08;49.00;;;28.25;;
66667;SDS011;57205;51.438;-2.006;2024-03-08T05:43:34;50.60;;;28.83;;
66667;SDS011;57205;51.438;-2.006;2024-03-08T05:46:00;46.45;;;29.23;;
66667;SDS011;57205;51.438;-2.006;2024-03-08T05:48:25;49.50;;;30.88;;
66667;SDS011;57205;51.438;-2.006;2024-03-08T05:50:51;55.45;;;29.38;;
66667;SDS011;57205;51.438;-2.006;2024-03-08T05:53:16;46.30;;;29.35;;
66667;SDS011;57205;51.438;-2.006;2024-03-08T05:55:41;46.85;;;29.52;;
66667;SDS011;57205;51.438;-2.006;2024-03-08T05:58:07;48.75;;;30.10;;
66667;SDS011;57205;51.438;-2.006;2024-03-08T06:00:33;48.70;;;29.25;;
66667;SDS011;57205;51.438;-2.006;2024-03-08T06:03:01;46.35;;;29.45;;
66667;SDS011;57205;51.438;-2.006;2024-03-08T06:05:27;43.65;;;28.27;;
66667;SDS011;57205;51.438;-2.006;2024-03-08T06:07:53;46.05;;;27.52;;
66667;SDS011;57205;51.438;-2.006;2024-03-08T06:10:18;47.03;;;28.00;;
66667;SDS011;57205;51.438;-2.006;2024-03-08T06:12:44;47.40;;;29.08;;
66667;SDS011;57205;51.438;-2.006;2024-03-08T06:15:10;52.00;;;31.88;;
66667;SDS011;57205;51.438;-2.006;2024-03-08T06:17:39;45.55;;;27.42;;
66667;SDS011;57205;51.438;-2.006;2024-03-08T06:20:05;49.15;;;30.42;;
66667;SDS011;57205;51.438;-2.006;2024-03-08T06:22:38;48.42;;;30.70;;
66667;SDS011;57205;51.438;-2.006;2024-03-08T06:25:07;48.85;;;31.45;;
66667;SDS011;57205;51.438;-2.006;2024-03-08T06:27:41;45.28;;;27.40;;
66667;SDS011;57205;51.438;-2.006;2024-03-08T06:30:11;44.85;;;26.60;;
66667;SDS011;57205;51.438;-2.006;2024-03-08T06:32:37;46.70;;;29.90;;
66667;SDS011;57205;51.438;-2.006;2024-03-08T06:35:03;49.28;;;29.17;;
66667;SDS011;57205;51.438;-2.006;2024-03-08T06:37:33;44.15;;;26.73;;
66667;SDS011;57205;51.438;-2.006;2024-03-08T06:39:59;45.33;;;28.52;;
66667;SDS011;57205;51.438;-2.006;2024-03-08T06:42:26;48.63;;;28.25;;
66667;SDS011;57205;51.438;-2.006;2024-03-08T06:44:52;47.33;;;29.15;;
66667;SDS011;57205;51.438;-2.006;2024-03-08T06:47:20;46.45;;;28.35;;
66667;SDS011;57205;51.438;-2.006;2024-03-08T06:49:46;47.55;;;27.45;;
66667;SDS011;57205;51.438;-2.006;2024-03-08T06:52:11;44.78;;;26.90;;
66667;SDS011;57205;51.438;-2.006;2024-03-08T06:54:37;48.95;;;28.10;;
66667;SDS011;57205;51.438;-2.006;2024-03-08T06:57:03;46.83;;;28.30;;
66667;SDS011;57205;51.438;-2.006;2024-03-08T06:59:31;41.63;;;26.85;;
66667;SDS011;57205;51.438;-2.006;2024-03-08T07:01:57;44.03;;;26.98;;
66667;SDS011;57205;51.438;-2.006;2024-03-08T07:04:24;42.88;;;26.65;;
66667;SDS011;57205;51.438;-2.006;2024-03-08T07:06:59;43.53;;;25.83;;
66667;SDS011;57205;51.438;-2.006;2024-03-08T07:09:24;40.58;;;25.85;;
66667;SDS011;57205;51.438;-2.006;2024-03-08T07:11:50;38.92;;;25.02;;
66667;SDS011;57205;51.438;-2.006;2024-03-08T07:14:23;39.58;;;24.48;;
66667;SDS011;57205;51.438;-2.006;2024-03-08T07:16:49;44.60;;;27.95;;
66667;SDS011;57205;51.438;-2.006;2024-03-08T07:19:16;36.55;;;24.25;;
66667;SDS011;57205;51.438;-2.006;2024-03-08T07:21:42;38.13;;;23.63;;
66667;SDS011;57205;51.438;-2.006;2024-03-08T07:24:12;38.90;;;25.27;;
66667;SDS011;57205;51.438;-2.006;2024-03-08T07:27:03;37.50;;;23.17;;
66667;SDS011;57205;51.438;-2.006;2024-03-08T07:29:30;35.65;;;22.90;;
66667;SDS011;57205;51.438;-2.006;2024-03-08T07:31:56;36.17;;;22.52;;
66667;SDS011;57205;51.438;-2.006;2024-03-08T07:34:27;37.63;;;22.15;;
66667;SDS011;57205;51.438;-2.006;2024-03-08T07:37:01;35.75;;;22.63;;
66667;SDS011;57205;51.438;-2.006;2024-03-08T07:39:28;33.83;;;23.35;;
66667;SDS011;57205;51.438;-2.006;2024-03-08T07:41:53;34.88;;;22.67;;
66667;SDS011;57205;51.438;-2.006;2024-03-08T07:44:19;34.72;;;22.20;;
66667;SDS011;57205;51.438;-2.006;2024-03-08T07:46:44;37.75;;;22.45;;
66667;SDS011;57205;51.438;-2.006;2024-03-08T07:49:10;31.20;;;20.83;;
66667;SDS011;57205;51.438;-2.006;2024-03-08T07:51:37;38.17;;;22.42;;
66667;SDS011;57205;51.438;-2.006;2024-03-08T07:54:03;36.75;;;22.35;;
66667;SDS011;57205;51.438;-2.006;2024-03-08T07:56:29;32.60;;;20.83;;
66667;SDS011;57205;51.438;-2.006;2024-03-08T07:58:55;34.58;;;21.50;;
66667;SDS011;57205;51.438;-2.006;2024-03-08T08:01:21;34.72;;;21.65;;
66667;SDS011;57205;51.438;-2.006;2024-03-08T08:03:47;36.13;;;22.60;;
66667;SDS011;57205;51.438;-2.006;2024-03-08T08:06:14;34.22;;;22.05;;
66667;SDS011;57205;51.438;-2.006;2024-03-08T08:08:41;30.77;;;19.65;;
66667;SDS011;57205;51.438;-2.006;2024-03-08T08:11:10;35.95;;;21.10;;
66667;SDS011;57205;51.438;-2.006;2024-03-08T08:13:36;33.35;;;19.73;;
66667;SDS011;57205;51.438;-2.006;2024-03-08T08:16:02;32.38;;;20.13;;
66667;SDS011;57205;51.438;-2.006;2024-03-08T08:18:29;28.95;;;18.73;;
66667;SDS011;57205;51.438;-2.006;2024-03-08T08:20:55;30.48;;;19.88;;
66667;SDS011;57205;51.438;-2.006;2024-03-08T08:23:21;29.20;;;18.83;;
66667;SDS011;57205;51.438;-2.006;2024-03-08T08:25:46;30.83;;;18.90;;
66667;SDS011;57205;51.438;-2.006;2024-03-08T08:28:16;32.47;;;18.75;;
66667;SDS011;57205;51.438;-2.006;2024-03-08T08:30:42;29.20;;;17.23;;
66667;SDS011;57205;51.438;-2.006;2024-03-08T08:33:08;28.77;;;16.63;;
66667;SDS011;57205;51.438;-2.006;2024-03-08T08:35:35;24.77;;;16.58;;
66667;SDS011;57205;51.438;-2.006;2024-03-08T08:38:02;24.73;;;14.90;;
66667;SDS011;57205;51.438;-2.006;2024-03-08T08:40:28;26.83;;;16.75;;
66667;SDS011;57205;51.438;-2.006;2024-03-08T08:42:56;27.38;;;16.15;;
66667;SDS011;57205;51.438;-2.006;2024-03-08T08:45:24;25.50;;;15.82;;
66667;SDS011;57205;51.438;-2.006;2024-03-08T08:47:52;28.23;;;15.55;;
66667;SDS011;57205;51.438;-2.006;2024-03-08T08:50:17;28.08;;;15.95;;
66667;SDS011;57205;51.438;-2.006;2024-03-08T08:52:49;24.95;;;15.45;;
66667;SDS011;57205;51.438;-2.006;2024-03-08T08:55:15;25.52;;;15.10;;
66667;SDS011;57205;51.438;-2.006;2024-03-08T08:57:41;31.13;;;17.95;;
66667;SDS011;57205;51.438;-2.006;2024-03-08T09:00:08;25.10;;;15.20;;
66667;SDS011;57205;51.438;-2.006;2024-03-08T09:02:33;24.40;;;16.70;;
66667;SDS011;57205;51.438;-2.006;2024-03-08T09:04:59;23.75;;;14.38;;
66667;SDS011;57205;51.438;-2.006;2024-03-08T09:07:26;22.40;;;15.20;;
66667;SDS011;57205;51.438;-2.006;2024-03-08T09:09:53;26.15;;;15.48;;
66667;SDS011;57205;51.438;-2.006;2024-03-08T09:12:22;25.15;;;15.60;;
66667;SDS011;57205;51.438;-2.006;2024-03-08T09:14:56;28.23;;;16.10;;
66667;SDS011;57205;51.438;-2.006;2024-03-08T09:17:28;21.20;;;14.20;;
66667;SDS011;57205;51.438;-2.006;2024-03-08T09:19:54;24.88;;;15.50;;
66667;SDS011;57205;51.438;-2.006;2024-03-08T09:22:20;23.05;;;14.95;;
66667;SDS011;57205;51.438;-2.006;2024-03-08T09:24:45;27.05;;;15.27;;
66667;SDS011;57205;51.438;-2.006;2024-03-08T09:27:11;26.15;;;16.80;;
66667;SDS011;57205;51.438;-2.006;2024-03-08T09:29:37;24.65;;;14.60;;
66667;SDS011;57205;51.438;-2.006;2024-03-08T09:32:04;22.10;;;14.48;;
66667;SDS011;57205;51.438;-2.006;2024-03-08T09:34:30;23.67;;;14.75;;
66667;SDS011;57205;51.438;-2.006;2024-03-08T09:36:55;20.48;;;13.07;;
66667;SDS011;57205;51.438;-2.006;2024-03-08T09:39:21;24.48;;;15.25;;
66667;SDS011;57205;51.438;-2.006;2024-03-08T09:41:50;23.15;;;14.20;;
66667;SDS011;57205;51.438;-2.006;2024-03-08T09:44:17;22.33;;;13.48;;
66667;SDS011;57205;51.438;-2.006;2024-03-08T09:46:46;25.70;;;15.30;;
66667;SDS011;57205;51.438;-2.006;2024-03-08T09:49:12;21.05;;;13.30;;
66667;SDS011;57205;51.438;-2.006;2024-03-08T09:51:38;26.02;;;14.57;;
66667;SDS011;57205;51.438;-2.006;2024-03-08T09:54:07;23.15;;;13.93;;
66667;SDS011;57205;51.438;-2.006;2024-03-08T09:56:35;24.40;;;15.07;;
66667;SDS011;57205;51.438;-2.006;2024-03-08T09:59:01;22.17;;;14.32;;
66667;SDS011;57205;51.438;-2.006;2024-03-08T10:01:45;24.20;;;14.02;;
66667;SDS011;57205;51.438;-2.006;2024-03-08T10:04:11;25.00;;;14.10;;
66667;SDS011;57205;51.438;-2.006;2024-03-08T10:06:37;23.33;;;14.10;;
66667;SDS011;57205;51.438;-2.006;2024-03-08T10:09:02;21.52;;;12.48;;
66667;SDS011;57205;51.438;-2.006;2024-03-08T10:11:28;22.08;;;13.48;;
66667;SDS011;57205;51.438;-2.006;2024-03-08T10:13:54;23.20;;;14.90;;
66667;SDS011;57205;51.438;-2.006;2024-03-08T10:16:19;23.95;;;14.43;;
66667;SDS011;57205;51.438;-2.006;2024-03-08T10:18:45;20.55;;;13.00;;
66667;SDS011;57205;51.438;-2.006;2024-03-08T10:21:11;24.27;;;13.50;;
66667;SDS011;57205;51.438;-2.006;2024-03-08T10:23:38;29.98;;;13.98;;
66667;SDS011;57205;51.438;-2.006;2024-03-08T10:26:14;21.95;;;15.23;;
66667;SDS011;57205;51.438;-2.006;2024-03-08T10:28:44;24.73;;;14.18;;
66667;SDS011;57205;51.438;-2.006;2024-03-08T10:31:15;19.48;;;13.77;;
66667;SDS011;57205;51.438;-2.006;2024-03-08T10:33:41;20.38;;;13.20;;
66667;SDS011;57205;51.438;-2.006;2024-03-08T10:36:08;23.77;;;14.48;;
66667;SDS011;57205;51.438;-2.006;2024-03-08T10:38:40;22.75;;;13.57;;
66667;SDS011;57205;51.438;-2.006;2024-03-08T10:41:10;25.80;;;15.73;;
66667;SDS011;57205;51.438;-2.006;2024-03-08T10:44:02;20.98;;;13.50;;
66667;SDS011;57205;51.438;-2.006;2024-03-08T10:49:19;21.75;;;13.80;;
66667;SDS011;57205;51.438;-2.006;2024-03-08T10:51:50;21.35;;;13.85;;
66667;SDS011;57205;51.438;-2.006;2024-03-08T10:54:17;26.30;;;14.82;;
66667;SDS011;57205;51.438;-2.006;2024-03-08T10:56:46;20.88;;;13.38;;
66667;SDS011;57205;51.438;-2.006;2024-03-08T10:59:14;21.55;;;13.65;;
66667;SDS011;57205;51.438;-2.006;2024-03-08T11:01:40;19.67;;;13.02;;
66667;SDS011;57205;51.438;-2.006;2024-03-08T11:04:06;25.58;;;15.40;;
66667;SDS011;57205;51.438;-2.006;2024-03-08T11:09:03;22.08;;;13.27;;
66667;SDS011;57205;51.438;-2.006;2024-03-08T11:11:40;21.15;;;12.02;;
66667;SDS011;57205;51.438;-2.006;2024-03-08T11:14:08;22.52;;;13.40;;
66667;SDS011;57205;51.438;-2.006;2024-03-08T11:19:56;21.45;;;12.52;;
66667;SDS011;57205;51.438;-2.006;2024-03-08T11:22:27;19.05;;;11.38;;
66667;SDS011;57205;51.438;-2.006;2024-03-08T11:25:03;19.45;;;12.85;;
66667;SDS011;57205;51.438;-2.006;2024-03-08T11:27:34;19.20;;;12.73;;
66667;SDS011;57205;51.438;-2.006;2024-03-08T11:30:05;24.08;;;12.43;;
66667;SDS011;57205;51.438;-2.006;2024-03-08T11:32:50;21.42;;;13.00;;
66667;SDS011;57205;51.438;-2.006;2024-03-08T11:35:21;22.90;;;13.20;;
66667;SDS011;57205;51.438;-2.006;2024-03-08T11:37:50;19.52;;;12.13;;
66667;SDS011;57205;51.438;-2.006;2024-03-08T11:40:15;20.55;;;11.98;;
66667;SDS011;57205;51.438;-2.006;2024-03-08T11:42:48;21.75;;;12.25;;
66667;SDS011;57205;51.438;-2.006;2024-03-08T11:45:14;22.42;;;13.13;;
66667;SDS011;57205;51.438;-2.006;2024-03-08T11:47:42;18.42;;;12.68;;
66667;SDS011;57205;51.438;-2.006;2024-03-08T11:50:11;19.63;;;11.18;;
66667;SDS011;57205;51.438;-2.006;2024-03-08T11:52:37;21.40;;;12.63;;
66667;SDS011;57205;51.438;-2.006;2024-03-08T11:55:03;23.85;;;11.48;;
66667;SDS011;57205;51.438;-2.006;2024-03-08T11:57:30;20.42;;;12.00;;
66667;SDS011;57205;51.438;-2.006;2024-03-08T11:59:57;20.17;;;12.40;;
66667;SDS011;57205;51.438;-2.006;2024-03-08T12:02:24;19.80;;;11.02;;
66667;SDS011;57205;51.438;-2.006;2024-03-08T12:04:59;19.23;;;12.18;;
66667;SDS011;57205;51.438;-2.006;2024-03-08T12:07:28;18.05;;;12.23;;
66667;SDS011;57205;51.438;-2.006;2024-03-08T12:12:45;19.05;;;12.15;;
66667;SDS011;57205;51.438;-2.006;2024-03-08T12:15:23;17.70;;;10.73;;
66667;SDS011;57205;51.438;-2.006;2024-03-08T12:17:52;19.13;;;10.65;;
66667;SDS011;57205;51.438;-2.006;2024-03-08T12:20:24;18.70;;;11.85;;
66667;SDS011;57205;51.438;-2.006;2024-03-08T12:22:55;20.63;;;11.52;;
66667;SDS011;57205;51.438;-2.006;2024-03-08T12:25:30;18.88;;;11.05;;
66667;SDS011;57205;51.438;-2.006;2024-03-08T12:27:56;18.85;;;10.32;;
66667;SDS011;57205;51.438;-2.006;2024-03-08T12:30:32;16.23;;;9.25;;
66667;SDS011;57205;51.438;-2.006;2024-03-08T12:33:01;17.23;;;10.65;;
66667;SDS011;57205;51.438;-2.006;2024-03-08T12:35:27;17.55;;;10.55;;
66667;SDS011;57205;51.438;-2.006;2024-03-08T12:37:55;17.75;;;10.40;;
66667;SDS011;57205;51.438;-2.006;2024-03-08T12:40:26;17.25;;;11.18;;
66667;SDS011;57205;51.438;-2.006;2024-03-08T12:42:54;16.88;;;10.23;;
66667;SDS011;57205;51.438;-2.006;2024-03-08T12:45:26;15.15;;;10.18;;
66667;SDS011;57205;51.438;-2.006;2024-03-08T12:47:53;18.23;;;10.68;;
66667;SDS011;57205;51.438;-2.006;2024-03-08T12:50:19;17.17;;;10.57;;
66667;SDS011;57205;51.438;-2.006;2024-03-08T12:52:50;18.05;;;11.10;;
66667;SDS011;57205;51.438;-2.006;2024-03-08T12:55:16;17.92;;;10.55;;
66667;SDS011;57205;51.438;-2.006;2024-03-08T12:57:43;17.83;;;9.55;;
66667;SDS011;57205;51.438;-2.006;2024-03-08T13:00:09;16.73;;;10.20;;
66667;SDS011;57205;51.438;-2.006;2024-03-08T13:02:40;18.33;;;10.32;;
66667;SDS011;57205;51.438;-2.006;2024-03-08T13:05:07;17.55;;;9.75;;
66667;SDS011;57205;51.438;-2.006;2024-03-08T13:07:34;19.35;;;10.88;;
66667;SDS011;57205;51.438;-2.006;2024-03-08T13:10:02;16.15;;;9.90;;
66667;SDS011;57205;51.438;-2.006;2024-03-08T13:12:29;16.42;;;10.32;;
66667;SDS011;57205;51.438;-2.006;2024-03-08T13:14:55;20.38;;;10.55;;
66667;SDS011;57205;51.438;-2.006;2024-03-08T13:17:21;17.05;;;10.05;;
66667;SDS011;57205;51.438;-2.006;2024-03-08T13:19:47;21.90;;;10.55;;
66667;SDS011;57205;51.438;-2.006;2024-03-08T13:22:13;16.65;;;10.15;;
66667;SDS011;57205;51.438;-2.006;2024-03-08T13:24:44;17.25;;;9.85;;
66667;SDS011;57205;51.438;-2.006;2024-03-08T13:27:10;18.38;;;10.07;;
66667;SDS011;57205;51.438;-2.006;2024-03-08T13:29:45;15.30;;;9.90;;
66667;SDS011;57205;51.438;-2.006;2024-03-08T13:32:14;17.15;;;9.77;;
66667;SDS011;57205;51.438;-2.006;2024-03-08T13:34:41;15.10;;;9.27;;
66667;SDS011;57205;51.438;-2.006;2024-03-08T13:37:07;15.32;;;9.68;;
66667;SDS011;57205;51.438;-2.006;2024-03-08T13:39:35;13.25;;;8.60;;
66667;SDS011;57205;51.438;-2.006;2024-03-08T13:42:11;14.85;;;8.85;;
66667;SDS011;57205;51.438;-2.006;2024-03-08T13:44:47;18.02;;;9.77;;
66667;SDS011;57205;51.438;-2.006;2024-03-08T13:47:16;20.83;;;10.02;;
66667;SDS011;57205;51.438;-2.006;2024-03-08T13:49:42;17.58;;;10.40;;
66667;SDS011;57205;51.438;-2.006;2024-03-08T13:52:09;18.40;;;10.80;;
66667;SDS011;57205;51.438;-2.006;2024-03-08T13:54:35;19.80;;;11.20;;
66667;SDS011;57205;51.438;-2.006;2024-03-08T13:57:02;18.38;;;11.10;;
66667;SDS011;57205;51.438;-2.006;2024-03-08T13:59:32;18.95;;;10.95;;
66667;SDS011;57205;51.438;-2.006;2024-03-08T14:01:58;17.92;;;11.55;;
66667;SDS011;57205;51.438;-2.006;2024-03-08T14:04:30;16.77;;;10.35;;
66667;SDS011;57205;51.438;-2.006;2024-03-08T14:06:55;15.63;;;10.52;;
66667;SDS011;57205;51.438;-2.006;2024-03-08T14:09:29;19.27;;;10.23;;
66667;SDS011;57205;51.438;-2.006;2024-03-08T14:11:56;18.83;;;10.85;;
66667;SDS011;57205;51.438;-2.006;2024-03-08T14:14:23;15.45;;;9.20;;
66667;SDS011;57205;51.438;-2.006;2024-03-08T14:16:49;17.52;;;11.00;;
66667;SDS011;57205;51.438;-2.006;2024-03-08T14:19:19;15.18;;;10.07;;
66667;SDS011;57205;51.438;-2.006;2024-03-08T14:21:45;17.95;;;10.68;;